sensor_id;sensor_type;location;lat;lon;timestamp;P1;durP1;ratioP1;P2;durP2;ratioP2
66559;SDS011;53413;49.878;8.142;2023-12-04T00:00:29;25.38;;;9.02;;
66559;SDS011;53413;49.878;8.142;2023-12-04T00:02:54;28.07;;;8.80;;
66559;SDS011;53413;49.878;8.142;2023-12-04T00:05:20;28.37;;;9.90;;
66559;SDS011;53413;49.878;8.142;2023-12-04T00:07:45;27.60;;;9.43;;
66559;SDS011;53413;49.878;8.142;2023-12-04T00:10:10;28.33;;;8.97;;
66559;SDS011;53413;49.878;8.142;2023-12-04T00:12:36;26.63;;;9.30;;
66559;SDS011;53413;49.878;8.142;2023-12-04T00:15:01;26.97;;;9.00;;
66559;SDS011;53413;49.878;8.142;2023-12-04T00:17:26;28.42;;;9.13;;
66559;SDS011;53413;49.878;8.142;2023-12-04T00:19:52;27.57;;;8.97;;
66559;SDS011;53413;49.878;8.142;2023-12-04T00:22:17;26.20;;;9.43;;
66559;SDS011;53413;49.878;8.142;2023-12-04T00:24:42;24.80;;;8.23;;
66559;SDS011;53413;49.878;8.142;2023-12-04T00:27:08;28.67;;;9.07;;
66559;SDS011;53413;49.878;8.142;2023-12-04T00:29:33;28.17;;;9.43;;
66559;SDS011;53413;49.878;8.142;2023-12-04T00:31:58;28.57;;;8.67;;
66559;SDS011;53413;49.878;8.142;2023-12-04T00:34:24;25.10;;;8.13;;
66559;SDS011;53413;49.878;8.142;2023-12-04T00:36:49;30.13;;;8.77;;
66559;SDS011;53413;49.878;8.142;2023-12-04T00:39:15;27.10;;;8.43;;
66559;SDS011;53413;49.878;8.142;2023-12-04T00:41:40;29.88;;;9.13;;
66559;SDS011;53413;49.878;8.142;2023-12-04T00:44:06;25.90;;;9.23;;
66559;SDS011;53413;49.878;8.142;2023-12-04T00:46:33;26.92;;;8.35;;
66559;SDS011;53413;49.878;8.142;2023-12-04T00:48:58;25.30;;;8.43;;
66559;SDS011;53413;49.878;8.142;2023-12-04T00:51:24;27.80;;;9.10;;
66559;SDS011;53413;49.878;8.142;2023-12-04T00:53:49;26.00;;;8.95;;
66559;SDS011;53413;49.878;8.142;2023-12-04T00:56:14;26.55;;;8.68;;
66559;SDS011;53413;49.878;8.142;2023-12-04T00:58:40;27.13;;;9.20;;
66559;SDS011;53413;49.878;8.142;2023-12-04T01:01:05;26.50;;;8.67;;
66559;SDS011;53413;49.878;8.142;2023-12-04T01:03:31;29.33;;;9.97;;
66559;SDS011;53413;49.878;8.142;2023-12-04T01:05:58;24.17;;;8.65;;
66559;SDS011;53413;49.878;8.142;2023-12-04T01:08:23;29.42;;;9.55;;
66559;SDS011;53413;49.878;8.142;2023-12-04T01:10:49;27.60;;;9.50;;
66559;SDS011;53413;49.878;8.142;2023-12-04T01:13:14;27.90;;;8.23;;
66559;SDS011;53413;49.878;8.142;2023-12-04T01:15:39;27.50;;;9.37;;
66559;SDS011;53413;49.878;8.142;2023-12-04T01:18:05;28.13;;;9.30;;
66559;SDS011;53413;49.878;8.142;2023-12-04T01:20:30;31.80;;;9.67;;
66559;SDS011;53413;49.878;8.142;2023-12-04T01:22:58;28.25;;;9.88;;
66559;SDS011;53413;49.878;8.142;2023-12-04T01:25:23;24.57;;;8.60;;
66559;SDS011;53413;49.878;8.142;2023-12-04T01:27:48;25.43;;;8.87;;
66559;SDS011;53413;49.878;8.142;2023-12-04T01:30:14;27.83;;;8.57;;
66559;SDS011;53413;49.878;8.142;2023-12-04T01:32:39;30.75;;;9.23;;
66559;SDS011;53413;49.878;8.142;2023-12-04T01:35:05;27.60;;;9.20;;
66559;SDS011;53413;49.878;8.142;2023-12-04T01:37:31;29.13;;;8.90;;
66559;SDS011;53413;49.878;8.142;2023-12-04T01:39:56;27.33;;;8.60;;
66559;SDS011;53413;49.878;8.142;2023-12-04T01:42:22;23.13;;;7.83;;
66559;SDS011;53413;49.878;8.142;2023-12-04T01:44:47;25.57;;;9.00;;
66559;SDS011;53413;49.878;8.142;2023-12-04T01:47:12;27.60;;;9.00;;
66559;SDS011;53413;49.878;8.142;2023-12-04T01:49:38;25.38;;;8.95;;
66559;SDS011;53413;49.878;8.142;2023-12-04T01:52:05;29.00;;;9.35;;
66559;SDS011;53413;49.878;8.142;2023-12-04T01:54:30;27.13;;;8.67;;
66559;SDS011;53413;49.878;8.142;2023-12-04T01:56:57;30.95;;;8.60;;
66559;SDS011;53413;49.878;8.142;2023-12-04T01:59:23;26.17;;;8.20;;
66559;SDS011;53413;49.878;8.142;2023-12-04T02:01:50;24.75;;;8.98;;
66559;SDS011;53413;49.878;8.142;2023-12-04T02:04:17;28.27;;;8.68;;
66559;SDS011;53413;49.878;8.142;2023-12-04T02:06:42;27.90;;;7.87;;
66559;SDS011;53413;49.878;8.142;2023-12-04T02:09:08;24.35;;;8.00;;
66559;SDS011;53413;49.878;8.142;2023-12-04T02:11:37;25.85;;;7.95;;
66559;SDS011;53413;49.878;8.142;2023-12-04T02:14:04;27.33;;;9.05;;
66559;SDS011;53413;49.878;8.142;2023-12-04T02:16:29;32.28;;;9.52;;
66559;SDS011;53413;49.878;8.142;2023-12-04T02:18:57;29.08;;;8.85;;
66559;SDS011;53413;49.878;8.142;2023-12-04T02:21:22;27.77;;;8.97;;
66559;SDS011;53413;49.878;8.142;2023-12-04T02:23:49;26.00;;;8.57;;
66559;SDS011;53413;49.878;8.142;2023-12-04T02:26:15;27.23;;;9.40;;
66559;SDS011;53413;49.878;8.142;2023-12-04T02:28:45;24.33;;;8.13;;
66559;SDS011;53413;49.878;8.142;2023-12-04T02:31:13;29.60;;;8.60;;
66559;SDS011;53413;49.878;8.142;2023-12-04T02:33:41;26.65;;;8.35;;
66559;SDS011;53413;49.878;8.142;2023-12-04T02:36:08;24.10;;;8.80;;
66559;SDS011;53413;49.878;8.142;2023-12-04T02:38:35;28.52;;;8.25;;
66559;SDS011;53413;49.878;8.142;2023-12-04T02:41:00;26.87;;;8.60;;
66559;SDS011;53413;49.878;8.142;2023-12-04T02:43:26;27.30;;;8.67;;
66559;SDS011;53413;49.878;8.142;2023-12-04T02:45:51;26.73;;;8.63;;
66559;SDS011;53413;49.878;8.142;2023-12-04T02:48:16;24.33;;;8.10;;
66559;SDS011;53413;49.878;8.142;2023-12-04T02:50:42;28.47;;;8.13;;
66559;SDS011;53413;49.878;8.142;2023-12-04T02:53:07;23.15;;;8.25;;
66559;SDS011;53413;49.878;8.142;2023-12-04T02:55:32;21.45;;;7.30;;
66559;SDS011;53413;49.878;8.142;2023-12-04T02:57:58;28.47;;;9.20;;
66559;SDS011;53413;49.878;8.142;2023-12-04T03:00:23;25.90;;;8.13;;
66559;SDS011;53413;49.878;8.142;2023-12-04T03:02:48;21.83;;;6.80;;
66559;SDS011;53413;49.878;8.142;2023-12-04T03:05:14;27.63;;;8.43;;
66559;SDS011;53413;49.878;8.142;2023-12-04T03:07:39;26.17;;;8.00;;
66559;SDS011;53413;49.878;8.142;2023-12-04T03:10:05;30.47;;;9.40;;
66559;SDS011;53413;49.878;8.142;2023-12-04T03:12:30;26.17;;;8.05;;
66559;SDS011;53413;49.878;8.142;2023-12-04T03:14:56;26.80;;;7.67;;
66559;SDS011;53413;49.878;8.142;2023-12-04T03:17:21;22.83;;;7.60;;
66559;SDS011;53413;49.878;8.142;2023-12-04T03:19:46;25.40;;;8.47;;
66559;SDS011;53413;49.878;8.142;2023-12-04T03:22:12;27.80;;;8.27;;
66559;SDS011;53413;49.878;8.142;2023-12-04T03:24:38;27.45;;;8.25;;
66559;SDS011;53413;49.878;8.142;2023-12-04T03:27:03;29.40;;;9.03;;
66559;SDS011;53413;49.878;8.142;2023-12-04T03:29:29;24.30;;;8.50;;
66559;SDS011;53413;49.878;8.142;2023-12-04T03:31:54;24.67;;;8.23;;
66559;SDS011;53413;49.878;8.142;2023-12-04T03:34:19;28.93;;;8.23;;
66559;SDS011;53413;49.878;8.142;2023-12-04T03:36:45;24.67;;;7.90;;
66559;SDS011;53413;49.878;8.142;2023-12-04T03:39:10;24.43;;;7.97;;
66559;SDS011;53413;49.878;8.142;2023-12-04T03:41:35;23.33;;;7.83;;
66559;SDS011;53413;49.878;8.142;2023-12-04T03:44:01;26.17;;;8.47;;
66559;SDS011;53413;49.878;8.142;2023-12-04T03:46:26;23.53;;;7.90;;
66559;SDS011;53413;49.878;8.142;2023-12-04T03:48:51;24.30;;;7.83;;
66559;SDS011;53413;49.878;8.142;2023-12-04T03:51:17;27.40;;;7.93;;
66559;SDS011;53413;49.878;8.142;2023-12-04T03:53:42;26.53;;;8.17;;
66559;SDS011;53413;49.878;8.142;2023-12-04T03:56:07;25.73;;;8.07;;
66559;SDS011;53413;49.878;8.142;2023-12-04T03:58:33;24.92;;;8.20;;
66559;SDS011;53413;49.878;8.142;2023-12-04T04:00:59;24.33;;;8.03;;
66559;SDS011;53413;49.878;8.142;2023-12-04T04:03:24;22.17;;;7.33;;
66559;SDS011;53413;49.878;8.142;2023-12-04T04:05:49;23.83;;;7.50;;
66559;SDS011;53413;49.878;8.142;2023-12-04T04:08:15;23.63;;;7.77;;
66559;SDS011;53413;49.878;8.142;2023-12-04T04:10:40;26.43;;;7.63;;
66559;SDS011;53413;49.878;8.142;2023-12-04T04:13:05;22.43;;;7.73;;
66559;SDS011;53413;49.878;8.142;2023-12-04T04:15:30;27.50;;;7.50;;
66559;SDS011;53413;49.878;8.142;2023-12-04T04:17:56;24.42;;;7.45;;
66559;SDS011;53413;49.878;8.142;2023-12-04T04:20:24;24.13;;;7.50;;
66559;SDS011;53413;49.878;8.142;2023-12-04T04:22:49;23.83;;;7.43;;
66559;SDS011;53413;49.878;8.142;2023-12-04T04:25:15;22.95;;;7.35;;
66559;SDS011;53413;49.878;8.142;2023-12-04T04:27:40;23.27;;;7.60;;
66559;SDS011;53413;49.878;8.142;2023-12-04T04:30:06;25.77;;;7.30;;
66559;SDS011;53413;49.878;8.142;2023-12-04T04:32:31;23.98;;;7.55;;
66559;SDS011;53413;49.878;8.142;2023-12-04T04:34:57;25.63;;;7.57;;
66559;SDS011;53413;49.878;8.142;2023-12-04T04:37:22;22.20;;;7.47;;
66559;SDS011;53413;49.878;8.142;2023-12-04T04:39:48;24.33;;;7.40;;
66559;SDS011;53413;49.878;8.142;2023-12-04T04:42:14;22.92;;;7.18;;
66559;SDS011;53413;49.878;8.142;2023-12-04T04:44:39;26.73;;;7.68;;
66559;SDS011;53413;49.878;8.142;2023-12-04T04:47:05;21.97;;;7.53;;
66559;SDS011;53413;49.878;8.142;2023-12-04T04:49:30;21.20;;;7.25;;
66559;SDS011;53413;49.878;8.142;2023-12-04T04:51:56;20.87;;;6.43;;
66559;SDS011;53413;49.878;8.142;2023-12-04T04:54:21;22.10;;;7.10;;
66559;SDS011;53413;49.878;8.142;2023-12-04T04:56:46;22.03;;;6.93;;
66559;SDS011;53413;49.878;8.142;2023-12-04T04:59:11;21.13;;;6.80;;
66559;SDS011;53413;49.878;8.142;2023-12-04T05:01:37;21.83;;;7.07;;
66559;SDS011;53413;49.878;8.142;2023-12-04T05:04:02;23.43;;;7.03;;
66559;SDS011;53413;49.878;8.142;2023-12-04T05:06:28;21.08;;;6.75;;
66559;SDS011;53413;49.878;8.142;2023-12-04T05:08:53;21.23;;;7.23;;
66559;SDS011;53413;49.878;8.142;2023-12-04T05:11:19;24.87;;;7.53;;
66559;SDS011;53413;49.878;8.142;2023-12-04T05:13:44;22.67;;;7.30;;
66559;SDS011;53413;49.878;8.142;2023-12-04T05:16:10;24.10;;;7.05;;
66559;SDS011;53413;49.878;8.142;2023-12-04T05:18:36;21.93;;;6.93;;
66559;SDS011;53413;49.878;8.142;2023-12-04T05:21:03;22.67;;;7.40;;
66559;SDS011;53413;49.878;8.142;2023-12-04T05:23:28;21.45;;;6.95;;
66559;SDS011;53413;49.878;8.142;2023-12-04T05:25:53;22.38;;;7.30;;
66559;SDS011;53413;49.878;8.142;2023-12-04T05:28:19;24.83;;;7.20;;
66559;SDS011;53413;49.878;8.142;2023-12-04T05:30:44;27.23;;;7.60;;
66559;SDS011;53413;49.878;8.142;2023-12-04T05:33:09;24.10;;;7.10;;
66559;SDS011;53413;49.878;8.142;2023-12-04T05:35:35;19.53;;;7.00;;
66559;SDS011;53413;49.878;8.142;2023-12-04T05:38:02;21.30;;;7.05;;
66559;SDS011;53413;49.878;8.142;2023-12-04T05:40:27;22.47;;;7.07;;
66559;SDS011;53413;49.878;8.142;2023-12-04T05:42:52;20.03;;;6.73;;
66559;SDS011;53413;49.878;8.142;2023-12-04T05:45:18;26.87;;;8.53;;
66559;SDS011;53413;49.878;8.142;2023-12-04T05:47:43;26.37;;;7.63;;
66559;SDS011;53413;49.878;8.142;2023-12-04T05:50:08;25.33;;;7.90;;
66559;SDS011;53413;49.878;8.142;2023-12-04T05:52:34;25.90;;;7.72;;
66559;SDS011;53413;49.878;8.142;2023-12-04T05:54:59;25.43;;;7.40;;
66559;SDS011;53413;49.878;8.142;2023-12-04T05:57:25;21.67;;;6.97;;
66559;SDS011;53413;49.878;8.142;2023-12-04T05:59:50;22.13;;;7.43;;
66559;SDS011;53413;49.878;8.142;2023-12-04T06:02:15;25.37;;;7.90;;
66559;SDS011;53413;49.878;8.142;2023-12-04T06:04:41;22.58;;;7.65;;
66559;SDS011;53413;49.878;8.142;2023-12-04T06:07:06;21.30;;;7.07;;
66559;SDS011;53413;49.878;8.142;2023-12-04T06:09:32;25.83;;;7.53;;
66559;SDS011;53413;49.878;8.142;2023-12-04T06:11:58;25.30;;;8.15;;
66559;SDS011;53413;49.878;8.142;2023-12-04T06:14:23;25.70;;;8.03;;
66559;SDS011;53413;49.878;8.142;2023-12-04T06:16:48;25.83;;;8.13;;
66559;SDS011;53413;49.878;8.142;2023-12-04T06:19:14;23.70;;;7.77;;
66559;SDS011;53413;49.878;8.142;2023-12-04T06:21:39;23.87;;;7.80;;
66559;SDS011;53413;49.878;8.142;2023-12-04T06:24:05;23.17;;;7.75;;
66559;SDS011;53413;49.878;8.142;2023-12-04T06:26:31;24.52;;;7.80;;
66559;SDS011;53413;49.878;8.142;2023-12-04T06:28:58;23.08;;;7.72;;
66559;SDS011;53413;49.878;8.142;2023-12-04T06:31:24;24.87;;;8.03;;
66559;SDS011;53413;49.878;8.142;2023-12-04T06:33:50;24.05;;;8.00;;
66559;SDS011;53413;49.878;8.142;2023-12-04T06:36:15;22.33;;;7.20;;
66559;SDS011;53413;49.878;8.142;2023-12-04T06:38:42;24.42;;;7.55;;
66559;SDS011;53413;49.878;8.142;2023-12-04T06:41:12;20.42;;;7.03;;
66559;SDS011;53413;49.878;8.142;2023-12-04T06:43:38;22.53;;;7.20;;
66559;SDS011;53413;49.878;8.142;2023-12-04T06:46:03;22.88;;;7.38;;
66559;SDS011;53413;49.878;8.142;2023-12-04T06:48:30;24.73;;;7.82;;
66559;SDS011;53413;49.878;8.142;2023-12-04T06:50:56;23.90;;;7.63;;
66559;SDS011;53413;49.878;8.142;2023-12-04T06:53:21;23.63;;;7.30;;
66559;SDS011;53413;49.878;8.142;2023-12-04T06:55:47;23.80;;;8.50;;
66559;SDS011;53413;49.878;8.142;2023-12-04T06:58:12;21.87;;;7.90;;
66559;SDS011;53413;49.878;8.142;2023-12-04T07:00:38;23.25;;;7.55;;
66559;SDS011;53413;49.878;8.142;2023-12-04T07:03:03;21.87;;;7.17;;
66559;SDS011;53413;49.878;8.142;2023-12-04T07:05:28;24.07;;;8.00;;
66559;SDS011;53413;49.878;8.142;2023-12-04T07:07:54;22.97;;;7.33;;
66559;SDS011;53413;49.878;8.142;2023-12-04T07:10:19;22.05;;;7.82;;
66559;SDS011;53413;49.878;8.142;2023-12-04T07:12:45;21.42;;;7.05;;
66559;SDS011;53413;49.878;8.142;2023-12-04T07:15:10;29.03;;;8.10;;
66559;SDS011;53413;49.878;8.142;2023-12-04T07:17:36;22.43;;;7.50;;
66559;SDS011;53413;49.878;8.142;2023-12-04T07:20:02;20.42;;;7.20;;
66559;SDS011;53413;49.878;8.142;2023-12-04T07:22:28;25.42;;;8.40;;
66559;SDS011;53413;49.878;8.142;2023-12-04T07:24:54;20.60;;;6.97;;
66559;SDS011;53413;49.878;8.142;2023-12-04T07:27:19;24.17;;;7.57;;
66559;SDS011;53413;49.878;8.142;2023-12-04T07:29:45;24.02;;;7.50;;
66559;SDS011;53413;49.878;8.142;2023-12-04T07:32:10;23.80;;;7.70;;
66559;SDS011;53413;49.878;8.142;2023-12-04T07:34:36;24.43;;;7.70;;
66559;SDS011;53413;49.878;8.142;2023-12-04T07:37:01;21.45;;;7.20;;
66559;SDS011;53413;49.878;8.142;2023-12-04T07:39:27;24.67;;;8.00;;
66559;SDS011;53413;49.878;8.142;2023-12-04T07:41:52;27.47;;;7.93;;
66559;SDS011;53413;49.878;8.142;2023-12-04T07:44:18;20.97;;;7.53;;
66559;SDS011;53413;49.878;8.142;2023-12-04T07:46:44;18.83;;;6.97;;
66559;SDS011;53413;49.878;8.142;2023-12-04T07:49:09;23.53;;;7.43;;
66559;SDS011;53413;49.878;8.142;2023-12-04T07:51:34;21.23;;;7.10;;
66559;SDS011;53413;49.878;8.142;2023-12-04T07:54:00;26.27;;;7.57;;
66559;SDS011;53413;49.878;8.142;2023-12-04T07:56:26;22.13;;;7.57;;
66559;SDS011;53413;49.878;8.142;2023-12-04T07:58:51;21.30;;;7.00;;
66559;SDS011;53413;49.878;8.142;2023-12-04T08:01:16;23.53;;;7.70;;
66559;SDS011;53413;49.878;8.142;2023-12-04T08:03:42;21.60;;;7.60;;
66559;SDS011;53413;49.878;8.142;2023-12-04T08:06:07;22.90;;;7.68;;
66559;SDS011;53413;49.878;8.142;2023-12-04T08:08:33;23.43;;;7.90;;
66559;SDS011;53413;49.878;8.142;2023-12-04T08:10:59;23.25;;;7.40;;
66559;SDS011;53413;49.878;8.142;2023-12-04T08:13:24;22.03;;;7.47;;
66559;SDS011;53413;49.878;8.142;2023-12-04T08:15:50;26.93;;;8.10;;
66559;SDS011;53413;49.878;8.142;2023-12-04T08:18:15;23.53;;;7.60;;
66559;SDS011;53413;49.878;8.142;2023-12-04T08:20:41;23.55;;;8.88;;
66559;SDS011;53413;49.878;8.142;2023-12-04T08:23:06;22.13;;;7.37;;
66559;SDS011;53413;49.878;8.142;2023-12-04T08:25:31;21.60;;;7.17;;
66559;SDS011;53413;49.878;8.142;2023-12-04T08:27:58;20.93;;;7.77;;
66559;SDS011;53413;49.878;8.142;2023-12-04T08:30:24;25.90;;;8.95;;
66559;SDS011;53413;49.878;8.142;2023-12-04T08:32:52;22.55;;;8.10;;
66559;SDS011;53413;49.878;8.142;2023-12-04T08:35:17;23.60;;;8.10;;
66559;SDS011;53413;49.878;8.142;2023-12-04T08:37:42;21.63;;;7.37;;
66559;SDS011;53413;49.878;8.142;2023-12-04T08:40:08;19.70;;;6.50;;
66559;SDS011;53413;49.878;8.142;2023-12-04T08:42:33;22.75;;;7.55;;
66559;SDS011;53413;49.878;8.142;2023-12-04T08:44:59;24.07;;;7.90;;
66559;SDS011;53413;49.878;8.142;2023-12-04T08:47:24;24.27;;;7.77;;
66559;SDS011;53413;49.878;8.142;2023-12-04T08:49:50;23.63;;;8.70;;
66559;SDS011;53413;49.878;8.142;2023-12-04T08:52:15;22.07;;;7.83;;
66559;SDS011;53413;49.878;8.142;2023-12-04T08:54:41;19.23;;;6.80;;
66559;SDS011;53413;49.878;8.142;2023-12-04T08:57:06;19.43;;;7.07;;
66559;SDS011;53413;49.878;8.142;2023-12-04T08:59:32;20.98;;;7.13;;
66559;SDS011;53413;49.878;8.142;2023-12-04T09:01:58;21.17;;;7.33;;
66559;SDS011;53413;49.878;8.142;2023-12-04T09:04:23;18.87;;;6.40;;
66559;SDS011;53413;49.878;8.142;2023-12-04T09:06:48;22.97;;;7.40;;
66559;SDS011;53413;49.878;8.142;2023-12-04T09:09:14;21.63;;;7.07;;
66559;SDS011;53413;49.878;8.142;2023-12-04T09:11:43;20.05;;;7.45;;
66559;SDS011;53413;49.878;8.142;2023-12-04T09:14:09;23.00;;;7.28;;
66559;SDS011;53413;49.878;8.142;2023-12-04T09:16:34;21.03;;;6.97;;
66559;SDS011;53413;49.878;8.142;2023-12-04T09:19:00;21.20;;;7.30;;
66559;SDS011;53413;49.878;8.142;2023-12-04T09:21:25;20.00;;;6.60;;
66559;SDS011;53413;49.878;8.142;2023-12-04T09:23:51;22.00;;;6.97;;
66559;SDS011;53413;49.878;8.142;2023-12-04T09:26:17;19.65;;;7.00;;
66559;SDS011;53413;49.878;8.142;2023-12-04T09:28:42;21.93;;;6.93;;
66559;SDS011;53413;49.878;8.142;2023-12-04T09:31:10;21.57;;;7.17;;
66559;SDS011;53413;49.878;8.142;2023-12-04T09:33:36;21.58;;;7.15;;
66559;SDS011;53413;49.878;8.142;2023-12-04T09:36:02;21.10;;;7.00;;
66559;SDS011;53413;49.878;8.142;2023-12-04T09:38:28;20.05;;;7.10;;
66559;SDS011;53413;49.878;8.142;2023-12-04T09:40:54;21.33;;;7.60;;
66559;SDS011;53413;49.878;8.142;2023-12-04T09:43:23;19.52;;;6.57;;
66559;SDS011;53413;49.878;8.142;2023-12-04T09:45:50;23.33;;;7.97;;
66559;SDS011;53413;49.878;8.142;2023-12-04T09:48:16;21.13;;;7.27;;
66559;SDS011;53413;49.878;8.142;2023-12-04T09:50:41;20.43;;;6.70;;
66559;SDS011;53413;49.878;8.142;2023-12-04T09:53:10;22.30;;;7.18;;
66559;SDS011;53413;49.878;8.142;2023-12-04T09:55:36;21.17;;;7.28;;
66559;SDS011;53413;49.878;8.142;2023-12-04T09:58:01;22.30;;;6.90;;
66559;SDS011;53413;49.878;8.142;2023-12-04T10:00:28;19.75;;;6.82;;
66559;SDS011;53413;49.878;8.142;2023-12-04T10:02:56;19.10;;;6.82;;
66559;SDS011;53413;49.878;8.142;2023-12-04T10:05:22;19.17;;;6.13;;
66559;SDS011;53413;49.878;8.142;2023-12-04T10:07:48;21.55;;;6.57;;
66559;SDS011;53413;49.878;8.142;2023-12-04T10:10:14;19.07;;;7.00;;
66559;SDS011;53413;49.878;8.142;2023-12-04T10:12:39;19.55;;;6.60;;
66559;SDS011;53413;49.878;8.142;2023-12-04T10:15:11;19.17;;;6.90;;
66559;SDS011;53413;49.878;8.142;2023-12-04T10:17:41;18.73;;;6.43;;
66559;SDS011;53413;49.878;8.142;2023-12-04T10:20:12;19.52;;;6.72;;
66559;SDS011;53413;49.878;8.142;2023-12-04T10:23:00;19.58;;;6.38;;
66559;SDS011;53413;49.878;8.142;2023-12-04T10:25:27;18.58;;;6.60;;
66559;SDS011;53413;49.878;8.142;2023-12-04T10:27:54;20.23;;;6.78;;
66559;SDS011;53413;49.878;8.142;2023-12-04T10:30:32;21.50;;;7.00;;
66559;SDS011;53413;49.878;8.142;2023-12-04T10:33:02;18.92;;;6.55;;
66559;SDS011;53413;49.878;8.142;2023-12-04T10:35:30;22.65;;;7.18;;
66559;SDS011;53413;49.878;8.142;2023-12-04T10:38:01;21.63;;;7.38;;
66559;SDS011;53413;49.878;8.142;2023-12-04T10:40:28;23.75;;;7.75;;
66559;SDS011;53413;49.878;8.142;2023-12-04T10:45:34;17.95;;;6.50;;
66559;SDS011;53413;49.878;8.142;2023-12-04T10:48:01;21.02;;;6.75;;
66559;SDS011;53413;49.878;8.142;2023-12-04T10:50:29;19.63;;;7.03;;
66559;SDS011;53413;49.878;8.142;2023-12-04T10:52:58;18.98;;;6.85;;
66559;SDS011;53413;49.878;8.142;2023-12-04T10:55:26;19.30;;;6.97;;
66559;SDS011;53413;49.878;8.142;2023-12-04T10:57:51;19.75;;;6.93;;
66559;SDS011;53413;49.878;8.142;2023-12-04T11:00:19;18.23;;;6.77;;
66559;SDS011;53413;49.878;8.142;2023-12-04T11:02:46;21.10;;;7.20;;
66559;SDS011;53413;49.878;8.142;2023-12-04T11:05:14;19.05;;;6.30;;
66559;SDS011;53413;49.878;8.142;2023-12-04T11:07:44;18.98;;;6.63;;
66559;SDS011;53413;49.878;8.142;2023-12-04T11:10:12;18.10;;;6.68;;
66559;SDS011;53413;49.878;8.142;2023-12-04T11:12:44;20.43;;;7.47;;
66559;SDS011;53413;49.878;8.142;2023-12-04T11:15:13;23.73;;;6.80;;
66559;SDS011;53413;49.878;8.142;2023-12-04T11:17:42;19.88;;;6.97;;
66559;SDS011;53413;49.878;8.142;2023-12-04T11:20:13;18.20;;;6.63;;
66559;SDS011;53413;49.878;8.142;2023-12-04T11:22:43;21.90;;;6.97;;
66559;SDS011;53413;49.878;8.142;2023-12-04T11:25:10;20.57;;;7.10;;
66559;SDS011;53413;49.878;8.142;2023-12-04T11:27:38;19.63;;;6.72;;
66559;SDS011;53413;49.878;8.142;2023-12-04T11:30:05;19.80;;;6.78;;
66559;SDS011;53413;49.878;8.142;2023-12-04T11:32:32;20.08;;;6.68;;
66559;SDS011;53413;49.878;8.142;2023-12-04T11:35:14;21.02;;;7.03;;
66559;SDS011;53413;49.878;8.142;2023-12-04T11:37:42;20.23;;;6.60;;
66559;SDS011;53413;49.878;8.142;2023-12-04T11:40:10;20.83;;;7.43;;
66559;SDS011;53413;49.878;8.142;2023-12-04T11:42:37;20.73;;;6.95;;
66559;SDS011;53413;49.878;8.142;2023-12-04T11:45:04;20.05;;;6.65;;
66559;SDS011;53413;49.878;8.142;2023-12-04T11:47:31;21.23;;;6.95;;
66559;SDS011;53413;49.878;8.142;2023-12-04T11:50:13;21.63;;;7.33;;
66559;SDS011;53413;49.878;8.142;2023-12-04T11:52:39;20.20;;;6.50;;
66559;SDS011;53413;49.878;8.142;2023-12-04T11:55:04;21.20;;;7.03;;
66559;SDS011;53413;49.878;8.142;2023-12-04T11:57:37;20.37;;;6.27;;
66559;SDS011;53413;49.878;8.142;2023-12-04T12:02:37;21.35;;;7.65;;
66559;SDS011;53413;49.878;8.142;2023-12-04T12:05:04;25.50;;;8.10;;
66559;SDS011;53413;49.878;8.142;2023-12-04T12:07:30;24.73;;;8.32;;
66559;SDS011;53413;49.878;8.142;2023-12-04T12:09:55;21.30;;;7.57;;
66559;SDS011;53413;49.878;8.142;2023-12-04T12:12:20;22.87;;;7.27;;
66559;SDS011;53413;49.878;8.142;2023-12-04T12:14:46;23.83;;;7.23;;
66559;SDS011;53413;49.878;8.142;2023-12-04T12:17:11;24.80;;;7.47;;
66559;SDS011;53413;49.878;8.142;2023-12-04T12:19:38;20.58;;;7.13;;
66559;SDS011;53413;49.878;8.142;2023-12-04T12:22:04;21.90;;;7.50;;
66559;SDS011;53413;49.878;8.142;2023-12-04T12:24:29;17.23;;;7.28;;
66559;SDS011;53413;49.878;8.142;2023-12-04T12:26:55;22.83;;;7.50;;
66559;SDS011;53413;49.878;8.142;2023-12-04T12:29:20;24.43;;;7.93;;
66559;SDS011;53413;49.878;8.142;2023-12-04T12:31:45;21.20;;;7.43;;
66559;SDS011;53413;49.878;8.142;2023-12-04T12:34:11;20.30;;;7.27;;
66559;SDS011;53413;49.878;8.142;2023-12-04T12:36:37;18.58;;;7.28;;
66559;SDS011;53413;49.878;8.142;2023-12-04T12:39:02;24.07;;;6.70;;
66559;SDS011;53413;49.878;8.142;2023-12-04T12:41:29;21.10;;;7.45;;
66559;SDS011;53413;49.878;8.142;2023-12-04T12:43:55;22.45;;;7.18;;
66559;SDS011;53413;49.878;8.142;2023-12-04T12:46:22;22.38;;;7.85;;
66559;SDS011;53413;49.878;8.142;2023-12-04T12:48:47;22.05;;;7.90;;
66559;SDS011;53413;49.878;8.142;2023-12-04T12:51:13;23.58;;;8.10;;
66559;SDS011;53413;49.878;8.142;2023-12-04T12:53:38;20.43;;;7.77;;
66559;SDS011;53413;49.878;8.142;2023-12-04T12:56:04;21.43;;;7.60;;
66559;SDS011;53413;49.878;8.142;2023-12-04T12:58:31;23.98;;;8.13;;
66559;SDS011;53413;49.878;8.142;2023-12-04T13:00:56;21.33;;;7.53;;
66559;SDS011;53413;49.878;8.142;2023-12-04T13:03:21;24.57;;;8.80;;
66559;SDS011;53413;49.878;8.142;2023-12-04T13:05:47;24.00;;;7.70;;
66559;SDS011;53413;49.878;8.142;2023-12-04T13:08:12;24.10;;;8.50;;
66559;SDS011;53413;49.878;8.142;2023-12-04T13:10:38;23.00;;;8.30;;
66559;SDS011;53413;49.878;8.142;2023-12-04T13:13:09;23.08;;;8.10;;
66559;SDS011;53413;49.878;8.142;2023-12-04T13:15:36;23.65;;;8.38;;
66559;SDS011;53413;49.878;8.142;2023-12-04T13:18:01;26.90;;;8.47;;
66559;SDS011;53413;49.878;8.142;2023-12-04T13:20:27;26.13;;;9.07;;
66559;SDS011;53413;49.878;8.142;2023-12-04T13:22:52;24.27;;;8.17;;
66559;SDS011;53413;49.878;8.142;2023-12-04T13:25:17;25.20;;;7.90;;
66559;SDS011;53413;49.878;8.142;2023-12-04T13:27:44;23.85;;;8.18;;
66559;SDS011;53413;49.878;8.142;2023-12-04T13:30:09;27.67;;;9.40;;
66559;SDS011;53413;49.878;8.142;2023-12-04T13:32:35;25.50;;;8.45;;
66559;SDS011;53413;49.878;8.142;2023-12-04T13:35:04;22.42;;;8.02;;
66559;SDS011;53413;49.878;8.142;2023-12-04T13:37:30;24.50;;;9.02;;
66559;SDS011;53413;49.878;8.142;2023-12-04T13:40:01;27.52;;;8.73;;
66559;SDS011;53413;49.878;8.142;2023-12-04T13:42:33;22.70;;;8.33;;
66559;SDS011;53413;49.878;8.142;2023-12-04T13:45:17;23.30;;;7.95;;
66559;SDS011;53413;49.878;8.142;2023-12-04T13:47:45;24.55;;;8.35;;
66559;SDS011;53413;49.878;8.142;2023-12-04T13:50:11;22.13;;;8.03;;
66559;SDS011;53413;49.878;8.142;2023-12-04T13:52:36;25.90;;;8.57;;
66559;SDS011;53413;49.878;8.142;2023-12-04T13:55:03;24.63;;;7.97;;
66559;SDS011;53413;49.878;8.142;2023-12-04T13:57:39;20.02;;;7.35;;
66559;SDS011;53413;49.878;8.142;2023-12-04T14:00:19;22.35;;;7.38;;
66559;SDS011;53413;49.878;8.142;2023-12-04T14:02:45;21.13;;;6.97;;
66559;SDS011;53413;49.878;8.142;2023-12-04T14:05:10;28.10;;;10.03;;
66559;SDS011;53413;49.878;8.142;2023-12-04T14:07:40;26.85;;;9.35;;
66559;SDS011;53413;49.878;8.142;2023-12-04T14:10:08;23.70;;;9.15;;
66559;SDS011;53413;49.878;8.142;2023-12-04T14:12:34;22.70;;;7.93;;
66559;SDS011;53413;49.878;8.142;2023-12-04T14:15:01;21.77;;;7.28;;
66559;SDS011;53413;49.878;8.142;2023-12-04T14:17:28;24.27;;;8.38;;
66559;SDS011;53413;49.878;8.142;2023-12-04T14:19:53;22.00;;;8.77;;
66559;SDS011;53413;49.878;8.142;2023-12-04T14:22:19;25.43;;;8.47;;
66559;SDS011;53413;49.878;8.142;2023-12-04T14:24:44;21.40;;;7.80;;
66559;SDS011;53413;49.878;8.142;2023-12-04T14:27:09;22.87;;;7.97;;
66559;SDS011;53413;49.878;8.142;2023-12-04T14:29:34;27.57;;;9.00;;
66559;SDS011;53413;49.878;8.142;2023-12-04T14:32:00;22.70;;;8.60;;